createdAt,value
2022-10-02T00:02:03.404Z,1.90
2022-10-02T00:04:06.984Z,2.03
2022-10-02T00:08:36.203Z,2.10
2022-10-02T00:12:41.470Z,1.90
2022-10-02T00:14:45.018Z,2.03
2022-10-02T00:16:52.937Z,2.55
2022-10-02T00:18:56.105Z,2.35
2022-10-02T00:21:09.087Z,2.38
2022-10-02T00:23:20.068Z,2.58
2022-10-02T00:25:41.406Z,2.95
2022-10-02T00:28:07.808Z,2.60
2022-10-02T00:30:12.410Z,3.08
2022-10-02T00:32:22.986Z,2.90
2022-10-02T00:34:40.046Z,2.97
2022-10-02T00:36:47.221Z,2.70
2022-10-02T00:38:57.711Z,2.80
2022-10-02T00:40:59.326Z,3.00
2022-10-02T00:43:11.304Z,3.63
2022-10-02T00:45:37.942Z,3.58
2022-10-02T00:48:10.438Z,3.40
2022-10-02T00:50:26.809Z,3.10
2022-10-02T00:52:38.778Z,3.20
2022-10-02T00:55:04.773Z,2.85
2022-10-02T00:57:13.816Z,3.03
2022-10-02T00:59:42.375Z,2.97
2022-10-02T01:01:50.995Z,2.63
2022-10-02T01:03:56.622Z,2.97
2022-10-02T01:05:58.220Z,2.40
2022-10-02T01:08:00.941Z,2.60
2022-10-02T01:10:03.108Z,2.33
2022-10-02T01:12:05.298Z,2.22
2022-10-02T01:14:07.292Z,2.90
2022-10-02T01:16:11.858Z,2.30
2022-10-02T01:18:13.835Z,2.40
2022-10-02T01:20:20.231Z,1.90
2022-10-02T01:22:24.799Z,2.03
2022-10-02T01:24:32.770Z,1.73
2022-10-02T01:26:34.940Z,2.10
2022-10-02T01:28:38.234Z,1.55
2022-10-02T01:30:43.456Z,2.13
2022-10-02T01:33:04.438Z,1.80
2022-10-02T01:35:06.908Z,1.90
2022-10-02T01:37:08.885Z,1.83
2022-10-02T01:39:11.481Z,1.63
2022-10-02T01:41:13.217Z,2.08
2022-10-02T01:43:19.187Z,1.83
2022-10-02T01:45:45.500Z,1.70
2022-10-02T01:48:03.027Z,1.70
2022-10-02T01:50:10.881Z,1.83
2022-10-02T01:52:27.471Z,1.75
2022-10-02T01:54:29.055Z,1.63
2022-10-02T01:56:43.979Z,1.85
2022-10-02T01:59:00.348Z,1.40
2022-10-02T02:01:31.352Z,1.40
2022-10-02T02:03:55.517Z,1.52
2022-10-02T02:06:05.145Z,1.65
2022-10-02T02:08:11.518Z,1.33
2022-10-02T02:10:13.072Z,1.50
2022-10-02T02:12:15.829Z,1.27
2022-10-02T02:14:23.719Z,1.30
2022-10-02T02:16:39.168Z,1.60
2022-10-02T02:18:43.592Z,1.40
2022-10-02T02:20:47.995Z,1.30
2022-10-02T02:22:51.972Z,1.27
2022-10-02T02:25:09.821Z,1.20
2022-10-02T02:27:16.012Z,1.70
2022-10-02T02:29:18.619Z,1.13
2022-10-02T02:31:25.068Z,1.10
2022-10-02T02:33:51.587Z,1.13
2022-10-02T02:36:00.201Z,1.05
2022-10-02T02:38:05.795Z,1.25
2022-10-02T02:40:11.806Z,1.20
2022-10-02T02:42:17.800Z,1.45
2022-10-02T02:44:50.462Z,1.33
2022-10-02T02:47:05.050Z,1.30
2022-10-02T02:49:10.814Z,1.45
2022-10-02T02:51:27.400Z,1.30
2022-10-02T02:53:42.528Z,1.40
2022-10-02T02:55:48.401Z,1.55
2022-10-02T02:57:57.383Z,1.73
2022-10-02T02:59:59.302Z,1.88
2022-10-02T03:02:01.785Z,1.40
2022-10-02T03:04:03.526Z,1.73
2022-10-02T03:06:27.535Z,1.45
2022-10-02T03:08:32.414Z,1.40
2022-10-02T03:10:49.907Z,1.60
2022-10-02T03:13:00.734Z,1.55
2022-10-02T03:15:30.222Z,1.40
2022-10-02T03:17:50.199Z,1.80
2022-10-02T03:20:13.438Z,2.03
2022-10-02T03:22:30.274Z,2.00
2022-10-02T03:25:02.154Z,2.22
2022-10-02T03:27:34.845Z,2.20
2022-10-02T03:29:42.611Z,2.30
2022-10-02T03:31:45.436Z,2.25
2022-10-02T03:33:47.559Z,2.37
2022-10-02T03:35:50.728Z,2.33
2022-10-02T03:37:57.878Z,2.60
2022-10-02T03:40:01.364Z,2.65
2022-10-02T03:42:03.042Z,2.85
2022-10-02T03:44:04.682Z,2.65
2022-10-02T03:46:06.724Z,2.58
2022-10-02T03:48:08.413Z,2.53
2022-10-02T03:50:14.782Z,2.90
2022-10-02T03:52:18.798Z,2.85
2022-10-02T03:54:21.820Z,2.50
2022-10-02T03:56:42.119Z,2.60
2022-10-02T03:58:46.275Z,2.40
2022-10-02T04:01:02.240Z,2.42
2022-10-02T04:03:09.904Z,2.80
2022-10-02T04:05:11.527Z,2.53
2022-10-02T04:07:18.340Z,2.90
2022-10-02T04:09:32.765Z,3.00
2022-10-02T04:11:42.843Z,2.75
2022-10-02T04:14:07.244Z,2.78
2022-10-02T04:16:17.248Z,2.85
2022-10-02T04:18:26.934Z,2.80
2022-10-02T04:20:33.671Z,2.97
2022-10-02T04:22:57.487Z,2.88
2022-10-02T04:25:07.227Z,2.88
2022-10-02T04:27:18.857Z,2.90
2022-10-02T04:29:27.312Z,2.63
2022-10-02T04:31:29.200Z,2.75
2022-10-02T04:33:36.387Z,2.67
2022-10-02T04:35:46.494Z,2.70
2022-10-02T04:37:59.931Z,3.08
2022-10-02T04:40:07.471Z,2.95
2022-10-02T04:42:21.538Z,2.80
2022-10-02T04:44:44.566Z,2.78
2022-10-02T04:46:58.363Z,2.75
2022-10-02T04:49:27.851Z,2.42
2022-10-02T04:51:38.379Z,2.83
2022-10-02T04:53:59.565Z,2.67
2022-10-02T04:56:12.519Z,2.70
2022-10-02T04:59:09.749Z,2.30
2022-10-02T05:01:19.179Z,2.80
2022-10-02T05:03:28.957Z,2.80
2022-10-02T05:05:40.202Z,2.22
2022-10-02T05:08:19.298Z,2.50
2022-10-02T05:10:56.455Z,2.35
2022-10-02T05:13:16.233Z,2.60
2022-10-02T05:15:33.144Z,2.40
2022-10-02T05:18:01.493Z,2.30
2022-10-02T05:20:44.015Z,2.25
2022-10-02T05:22:49.191Z,2.30
2022-10-02T05:24:55.306Z,2.20
2022-10-02T05:27:15.592Z,2.15
2022-10-02T05:29:44.889Z,2.20
2022-10-02T05:32:00.665Z,2.30
2022-10-02T05:34:14.289Z,2.20
2022-10-02T05:36:39.265Z,2.13
2022-10-02T05:39:03.708Z,2.10
2022-10-02T05:41:43.291Z,2.20
2022-10-02T05:44:09.468Z,2.30
2022-10-02T05:46:25.597Z,2.28
2022-10-02T05:48:37.462Z,2.22
2022-10-02T05:50:39.369Z,2.30
2022-10-02T05:52:47.735Z,2.03
2022-10-02T05:55:04.525Z,2.03
2022-10-02T05:57:18.445Z,2.10
2022-10-02T05:59:22.948Z,2.17
2022-10-02T06:01:28.193Z,2.15
2022-10-02T06:03:48.474Z,3.15
2022-10-02T06:06:23.097Z,2.50
2022-10-02T06:08:48.347Z,2.13
2022-10-02T06:10:54.362Z,2.20
2022-10-02T06:13:00.999Z,2.25
2022-10-02T06:15:25.633Z,2.88
2022-10-02T06:17:41.298Z,2.47
2022-10-02T06:20:02.959Z,2.90
2022-10-02T06:22:12.438Z,2.58
2022-10-02T06:24:22.720Z,2.45
2022-10-02T06:26:49.550Z,2.70
2022-10-02T06:29:00.567Z,2.83
2022-10-02T06:31:06.151Z,2.42
2022-10-02T06:33:24.487Z,3.20
2022-10-02T06:35:43.552Z,2.67
2022-10-02T06:37:54.053Z,2.97
2022-10-02T06:40:18.867Z,3.05
2022-10-02T06:42:45.051Z,3.40
2022-10-02T06:45:09.652Z,3.70
2022-10-02T06:48:06.744Z,3.22
2022-10-02T06:50:28.153Z,3.05
2022-10-02T06:52:32.292Z,3.03
2022-10-02T06:54:43.491Z,3.20
2022-10-02T06:57:14.335Z,2.65
2022-10-02T06:59:31.668Z,2.83
2022-10-02T07:01:35.877Z,2.85
2022-10-02T07:03:57.598Z,2.88
2022-10-02T07:06:02.272Z,3.10
2022-10-02T07:08:12.145Z,3.00
2022-10-02T07:10:35.813Z,3.15
2022-10-02T07:12:47.153Z,2.53
2022-10-02T07:15:07.493Z,2.70
2022-10-02T07:17:27.671Z,2.35
2022-10-02T07:19:43.104Z,2.40
2022-10-02T07:22:32.454Z,2.28
2022-10-02T07:24:57.241Z,2.10
2022-10-02T07:27:19.005Z,3.55
2022-10-02T07:30:07.208Z,2.42
2022-10-02T07:32:49.380Z,2.60
2022-10-02T07:35:03.663Z,2.10
2022-10-02T07:37:23.476Z,2.03
2022-10-02T07:40:01.258Z,2.30
2022-10-02T07:42:15.639Z,2.15
2022-10-02T07:44:26.079Z,1.85
2022-10-02T07:46:55.465Z,2.15
2022-10-02T07:49:13.626Z,2.00
2022-10-02T07:51:42.864Z,2.05
2022-10-02T07:53:50.505Z,1.95
2022-10-02T07:55:53.748Z,1.70
2022-10-02T07:58:10.231Z,1.42
2022-10-02T08:00:16.794Z,1.50
2022-10-02T08:02:49.079Z,1.33
2022-10-02T08:04:57.921Z,1.65
2022-10-02T08:07:02.719Z,1.80
2022-10-02T08:09:07.161Z,1.63
2022-10-02T08:11:12.811Z,1.70
2022-10-02T08:13:20.846Z,1.77
2022-10-02T08:15:24.647Z,1.88
2022-10-02T08:17:28.957Z,1.90
2022-10-02T08:19:37.449Z,1.85
2022-10-02T08:21:42.954Z,2.03
2022-10-02T08:24:04.695Z,2.33
2022-10-02T08:26:35.643Z,1.90
2022-10-02T08:28:49.875Z,1.67
2022-10-02T08:30:51.870Z,1.27
2022-10-02T08:32:54.379Z,1.42
2022-10-02T08:34:56.127Z,1.42
2022-10-02T08:37:25.637Z,1.48
2022-10-02T08:39:39.739Z,1.63
2022-10-02T08:44:21.489Z,1.50
2022-10-02T08:46:47.619Z,1.65
2022-10-02T08:49:06.597Z,1.90
2022-10-02T08:51:14.313Z,1.90
2022-10-02T08:53:28.040Z,1.98
2022-10-02T08:55:44.295Z,1.70
2022-10-02T08:58:21.534Z,1.90
2022-10-02T09:00:27.227Z,1.40
2022-10-02T09:02:52.053Z,1.70
2022-10-02T09:05:20.086Z,1.80
2022-10-02T09:07:44.513Z,1.50
2022-10-02T09:12:42.565Z,1.73
2022-10-02T09:14:54.480Z,1.70
2022-10-02T09:17:35.054Z,1.48
2022-10-02T09:19:45.413Z,1.50
2022-10-02T09:21:56.342Z,1.80
2022-10-02T09:24:22.725Z,1.70
2022-10-02T09:26:40.805Z,1.83
2022-10-02T09:29:06.424Z,1.73
2022-10-02T09:31:35.150Z,1.80
2022-10-02T09:33:51.948Z,2.08
2022-10-02T09:35:53.461Z,1.90
2022-10-02T09:38:42.779Z,1.60
2022-10-02T09:41:24.410Z,1.83
2022-10-02T09:43:32.059Z,1.40
2022-10-02T09:46:11.494Z,2.03
2022-10-02T09:48:33.593Z,1.88
2022-10-02T09:50:59.985Z,1.70
2022-10-02T09:53:21.099Z,1.83
2022-10-02T09:55:42.998Z,1.50
2022-10-02T09:58:29.735Z,2.00
2022-10-02T10:00:31.319Z,2.10
2022-10-02T10:02:45.081Z,1.77
2022-10-02T10:05:11.514Z,2.45
2022-10-02T10:07:35.812Z,1.73
2022-10-02T10:09:58.811Z,1.70
2022-10-02T10:12:35.362Z,1.65
2022-10-02T10:14:52.020Z,1.92
2022-10-02T10:17:09.090Z,1.90
2022-10-02T10:19:32.919Z,1.63
2022-10-02T10:21:46.616Z,1.70
2022-10-02T10:24:06.755Z,1.25
2022-10-02T10:26:55.873Z,1.42
2022-10-02T10:29:15.447Z,1.20
2022-10-02T10:31:35.993Z,1.65
2022-10-02T10:33:53.486Z,1.30
2022-10-02T10:36:58.639Z,1.67
2022-10-02T10:39:29.495Z,1.40
2022-10-02T10:41:37.371Z,1.20
2022-10-02T10:44:06.271Z,1.70
2022-10-02T10:46:29.381Z,2.15
2022-10-02T10:48:37.028Z,1.75
2022-10-02T10:50:54.043Z,1.42
2022-10-02T10:53:29.719Z,1.63
2022-10-02T10:55:46.331Z,1.38
2022-10-02T10:58:34.875Z,1.00
2022-10-02T11:00:51.280Z,1.25
2022-10-02T11:03:11.379Z,1.20
2022-10-02T11:05:51.533Z,1.40
2022-10-02T11:07:59.092Z,1.50
2022-10-02T11:10:41.945Z,1.50
2022-10-02T11:13:05.670Z,1.13
2022-10-02T11:15:40.165Z,1.33
2022-10-02T11:17:51.734Z,1.40
2022-10-02T11:19:56.348Z,1.40
2022-10-02T11:22:25.753Z,1.20
2022-10-02T11:24:50.531Z,1.17
2022-10-02T11:27:23.415Z,1.58
2022-10-02T11:29:54.809Z,1.30
2022-10-02T11:32:22.776Z,1.30
2022-10-02T11:34:27.229Z,1.48
2022-10-02T11:36:48.305Z,1.08
2022-10-02T11:39:14.756Z,1.00
2022-10-02T11:41:48.688Z,1.25
2022-10-02T11:44:12.710Z,1.23
2022-10-02T11:46:26.060Z,1.60
2022-10-02T11:49:27.013Z,1.23
2022-10-02T11:51:50.938Z,1.20
2022-10-02T11:54:10.771Z,1.23
2022-10-02T11:56:39.237Z,1.33
2022-10-02T11:59:08.465Z,0.90
2022-10-02T12:01:17.112Z,1.05
2022-10-02T12:03:28.332Z,1.10
2022-10-02T12:05:43.145Z,1.13
2022-10-02T12:08:08.803Z,1.05
2022-10-02T12:10:32.000Z,1.20
2022-10-02T12:12:52.231Z,1.20
2022-10-02T12:15:18.060Z,1.08
2022-10-02T12:18:15.336Z,1.38
2022-10-02T12:20:44.334Z,1.30
2022-10-02T12:23:07.498Z,1.45
2022-10-02T12:25:51.303Z,1.23
2022-10-02T12:28:15.757Z,1.30
2022-10-02T12:30:52.637Z,1.20
2022-10-02T12:33:13.080Z,1.15
2022-10-02T12:35:32.610Z,1.35
2022-10-02T12:37:46.356Z,1.45
2022-10-02T12:40:00.718Z,1.42
2022-10-02T12:42:45.366Z,1.60
2022-10-02T12:45:16.970Z,1.50
2022-10-02T12:47:29.122Z,1.48
2022-10-02T12:49:45.670Z,1.20
2022-10-02T12:51:59.312Z,1.35
2022-10-02T12:54:28.526Z,1.38
2022-10-02T12:57:04.863Z,1.27
2022-10-02T12:59:25.805Z,1.35
2022-10-02T13:02:07.156Z,1.20
2022-10-02T13:04:40.770Z,1.05
2022-10-02T13:07:16.280Z,1.40
2022-10-02T13:09:30.798Z,1.35
2022-10-02T13:11:55.705Z,1.20
2022-10-02T13:14:35.913Z,1.27
2022-10-02T13:16:59.118Z,1.60
2022-10-02T13:19:05.930Z,1.10
2022-10-02T13:21:49.604Z,1.10
2022-10-02T13:24:15.579Z,1.40
2022-10-02T13:26:44.049Z,1.17
2022-10-02T13:29:25.169Z,0.98
2022-10-02T13:31:56.140Z,0.98
2022-10-02T13:34:19.151Z,0.90
2022-10-02T13:36:57.697Z,0.80
2022-10-02T13:39:16.053Z,1.35
2022-10-02T13:41:44.050Z,1.10
2022-10-02T13:43:54.245Z,0.80
2022-10-02T13:46:17.864Z,1.10
2022-10-02T13:48:34.550Z,1.10
2022-10-02T13:51:11.819Z,1.00
2022-10-02T13:54:04.878Z,0.90
2022-10-02T13:56:29.051Z,0.98
2022-10-02T13:58:49.705Z,0.80
2022-10-02T14:01:06.139Z,0.98
2022-10-02T14:03:26.392Z,1.10
2022-10-02T14:05:44.935Z,1.10
2022-10-02T14:08:09.438Z,0.80
2022-10-02T14:10:14.215Z,1.15
2022-10-02T14:12:24.819Z,1.10
2022-10-02T14:14:56.352Z,0.80
2022-10-02T14:17:01.032Z,1.40
2022-10-02T14:19:32.202Z,0.90
2022-10-02T14:21:37.449Z,1.10
2022-10-02T14:23:42.341Z,1.35
2022-10-02T14:25:57.577Z,1.00
2022-10-02T14:28:44.785Z,0.90
2022-10-02T14:30:52.828Z,1.10
2022-10-02T14:33:00.332Z,0.80
2022-10-02T14:35:23.508Z,1.13
2022-10-02T14:37:41.504Z,1.00
2022-10-02T14:39:44.587Z,0.80
2022-10-02T14:41:58.944Z,0.88
2022-10-02T14:44:23.253Z,1.17
2022-10-02T14:48:50.918Z,0.95
2022-10-02T14:51:20.421Z,1.23
2022-10-02T14:53:28.013Z,1.00
2022-10-02T14:55:57.457Z,1.10
2022-10-02T14:58:34.135Z,0.98
2022-10-02T15:00:58.852Z,0.95
2022-10-02T15:03:19.157Z,0.98
2022-10-02T15:05:42.070Z,1.27
2022-10-02T15:07:45.070Z,0.95
2022-10-02T15:10:05.173Z,1.17
2022-10-02T15:12:06.953Z,1.30
2022-10-02T15:14:11.301Z,1.20
2022-10-02T15:16:41.421Z,1.13
2022-10-02T15:19:07.429Z,1.00
2022-10-02T15:21:31.068Z,1.10
2022-10-02T15:23:47.332Z,1.25
2022-10-02T15:26:16.212Z,0.90
2022-10-02T15:28:39.080Z,1.20
2022-10-02T15:30:49.366Z,1.50
2022-10-02T15:33:00.061Z,1.10
2022-10-02T15:35:19.948Z,1.30
2022-10-02T15:37:26.975Z,1.20
2022-10-02T15:39:57.285Z,1.00
2022-10-02T15:42:05.564Z,1.30
2022-10-02T15:44:21.626Z,1.38
2022-10-02T15:46:41.800Z,1.42
2022-10-02T15:49:17.651Z,1.17
2022-10-02T15:51:34.546Z,1.55
2022-10-02T15:53:37.512Z,1.20
2022-10-02T15:55:56.186Z,1.17
2022-10-02T15:58:17.967Z,1.08
2022-10-02T16:00:22.090Z,1.30
2022-10-02T16:03:00.345Z,1.02
2022-10-02T16:05:15.621Z,1.02
2022-10-02T16:07:20.547Z,1.00
2022-10-02T16:09:28.140Z,1.13
2022-10-02T16:11:48.282Z,1.23
2022-10-02T16:14:12.367Z,1.20
2022-10-02T16:16:42.480Z,1.10
2022-10-02T16:18:50.461Z,1.10
2022-10-02T16:21:06.977Z,1.10
2022-10-02T16:23:34.239Z,1.40
2022-10-02T16:25:47.887Z,1.40
2022-10-02T16:28:05.681Z,1.52
2022-10-02T16:30:14.357Z,1.50
2022-10-02T16:32:24.234Z,1.50
2022-10-02T16:34:37.935Z,1.45
2022-10-02T16:36:59.758Z,1.60
2022-10-02T16:39:10.537Z,1.50
2022-10-02T16:41:34.253Z,2.50
2022-10-02T16:43:38.854Z,2.10
2022-10-02T16:46:02.876Z,2.10
2022-10-02T16:48:10.022Z,2.20
2022-10-02T16:50:19.981Z,2.17
2022-10-02T16:52:33.584Z,1.30
2022-10-02T16:54:54.283Z,1.45
2022-10-02T16:56:59.607Z,1.50
2022-10-02T16:59:12.816Z,1.50
2022-10-02T17:01:32.230Z,1.10
2022-10-02T17:03:36.446Z,1.42
2022-10-02T17:05:45.985Z,1.40
2022-10-02T17:07:57.162Z,1.40
2022-10-02T17:10:07.428Z,0.93
2022-10-02T17:12:20.371Z,1.17
2022-10-02T17:14:31.462Z,1.40
2022-10-02T17:16:57.525Z,1.35
2022-10-02T17:19:04.527Z,1.05
2022-10-02T17:21:55.935Z,1.30
2022-10-02T17:24:17.098Z,1.08
2022-10-02T17:26:51.043Z,1.23
2022-10-02T17:29:07.096Z,1.07
2022-10-02T17:31:27.509Z,1.20
2022-10-02T17:33:42.877Z,1.08
2022-10-02T17:36:25.528Z,1.20
2022-10-02T17:38:48.393Z,1.10
2022-10-02T17:40:49.998Z,1.00
2022-10-02T17:43:03.142Z,1.17
2022-10-02T17:45:32.371Z,1.08
2022-10-02T17:48:10.616Z,1.13
2022-10-02T17:50:36.520Z,1.20
2022-10-02T17:53:34.304Z,1.25
2022-10-02T17:56:19.353Z,1.13
2022-10-02T17:58:58.631Z,0.82
2022-10-02T18:01:31.068Z,0.90
2022-10-02T18:03:39.872Z,1.83
2022-10-02T18:05:51.638Z,1.42
2022-10-02T18:08:00.108Z,0.95
2022-10-02T18:10:38.994Z,1.33
2022-10-02T18:12:51.742Z,1.15
2022-10-02T18:15:22.261Z,1.08
2022-10-02T18:17:27.674Z,1.17
2022-10-02T18:20:08.176Z,1.33
2022-10-02T18:22:46.208Z,1.20
2022-10-02T18:25:12.548Z,2.17
2022-10-02T18:27:27.808Z,1.83
2022-10-02T18:29:57.524Z,0.95
2022-10-02T18:32:27.057Z,1.00
2022-10-02T18:34:31.662Z,1.38
2022-10-02T18:36:37.528Z,1.10
2022-10-02T18:38:54.047Z,1.20
2022-10-02T18:41:22.398Z,1.00
2022-10-02T18:43:42.230Z,1.05
2022-10-02T18:46:41.184Z,1.10
2022-10-02T18:49:01.289Z,1.10
2022-10-02T18:51:05.481Z,1.10
2022-10-02T18:53:25.493Z,1.23
2022-10-02T18:56:02.244Z,1.20
2022-10-02T18:58:24.143Z,1.60
2022-10-02T19:00:37.748Z,1.10
2022-10-02T19:02:54.096Z,1.20
2022-10-02T19:05:41.506Z,1.02
2022-10-02T19:08:02.182Z,1.20
2022-10-02T19:10:28.074Z,1.13
2022-10-02T19:12:31.224Z,1.23
2022-10-02T19:14:36.280Z,1.58
2022-10-02T19:16:37.954Z,1.42
2022-10-02T19:18:40.121Z,1.42
2022-10-02T19:21:00.525Z,1.20
2022-10-02T19:23:04.090Z,1.25
2022-10-02T19:25:16.811Z,1.20
2022-10-02T19:27:24.628Z,1.20
2022-10-02T19:29:38.947Z,1.17
2022-10-02T19:31:41.560Z,1.10
2022-10-02T19:34:10.979Z,1.10
2022-10-02T19:36:21.864Z,1.13
2022-10-02T19:38:34.753Z,1.17
2022-10-02T19:40:36.651Z,1.20
2022-10-02T19:42:46.314Z,1.15
2022-10-02T19:44:50.062Z,1.38
2022-10-02T19:48:56.817Z,1.40
2022-10-02T19:51:07.610Z,1.20
2022-10-02T19:53:25.987Z,1.60
2022-10-02T19:55:34.118Z,1.23
2022-10-02T19:57:40.092Z,1.10
2022-10-02T19:59:52.381Z,1.13
2022-10-02T20:01:55.724Z,1.30
2022-10-02T20:03:59.795Z,1.38
2022-10-02T20:06:11.123Z,1.40
2022-10-02T20:08:36.758Z,1.90
2022-10-02T20:10:41.796Z,2.00
2022-10-02T20:12:49.458Z,1.85
2022-10-02T20:15:11.941Z,2.13
2022-10-02T20:17:14.027Z,1.90
2022-10-02T20:19:30.646Z,2.35
2022-10-02T20:22:19.775Z,1.55
2022-10-02T20:24:24.332Z,2.40
2022-10-02T20:26:29.894Z,1.80
2022-10-02T20:28:43.657Z,2.20
2022-10-02T20:30:50.437Z,2.20
2022-10-02T20:33:01.594Z,2.22
2022-10-02T20:35:34.847Z,2.10
2022-10-02T20:37:37.104Z,2.13
2022-10-02T20:39:44.717Z,2.50
2022-10-02T20:41:52.439Z,2.30
2022-10-02T20:44:04.367Z,2.67
2022-10-02T20:46:21.347Z,1.80
2022-10-02T20:49:06.493Z,2.17
2022-10-02T20:51:13.477Z,1.95
2022-10-02T20:53:41.478Z,2.60
2022-10-02T20:55:59.715Z,2.20
2022-10-02T20:58:04.154Z,1.73
2022-10-02T21:00:25.136Z,1.83
2022-10-02T21:02:34.810Z,1.85
2022-10-02T21:04:39.426Z,1.80
2022-10-02T21:07:14.391Z,1.70
2022-10-02T21:12:11.429Z,3.30
2022-10-02T21:14:54.631Z,3.45
2022-10-02T21:17:29.329Z,3.95
2022-10-02T21:19:52.460Z,4.03
2022-10-02T21:22:31.978Z,4.10
2022-10-02T21:25:12.134Z,3.88
2022-10-02T21:27:23.872Z,6.65
2022-10-02T21:29:28.518Z,6.57
2022-10-02T21:31:52.160Z,10.38
2022-10-02T21:33:56.486Z,11.23
2022-10-02T21:36:08.393Z,10.35
2022-10-02T21:38:23.594Z,8.73
2022-10-02T21:40:37.266Z,7.40
2022-10-02T21:43:09.337Z,6.43
2022-10-02T21:45:23.864Z,5.18
2022-10-02T21:47:34.891Z,5.43
2022-10-02T21:49:45.595Z,5.53
2022-10-02T21:52:05.028Z,5.20
2022-10-02T21:54:48.329Z,3.47
2022-10-02T21:57:02.613Z,4.47
2022-10-02T21:59:04.129Z,4.70
2022-10-02T22:01:30.541Z,3.95
2022-10-02T22:03:47.700Z,3.72
2022-10-02T22:06:20.111Z,3.30
2022-10-02T22:08:44.026Z,2.78
2022-10-02T22:11:04.931Z,3.38
2022-10-02T22:13:15.500Z,2.90
2022-10-02T22:15:50.685Z,2.92
2022-10-02T22:17:58.993Z,3.33
2022-10-02T22:20:10.844Z,3.58
2022-10-02T22:22:16.193Z,3.67
2022-10-02T22:24:23.942Z,3.15
2022-10-02T22:26:51.013Z,2.90
2022-10-02T22:29:00.401Z,3.20
2022-10-02T22:31:20.950Z,3.22
2022-10-02T22:33:22.642Z,3.60
2022-10-02T22:36:01.759Z,3.40
2022-10-02T22:38:27.993Z,3.25
2022-10-02T22:40:38.525Z,2.55
2022-10-02T22:42:45.074Z,2.67
2022-10-02T22:44:46.611Z,3.30
2022-10-02T22:46:53.085Z,2.70
2022-10-02T22:49:02.727Z,3.00
2022-10-02T22:51:15.640Z,3.10
2022-10-02T22:53:25.796Z,3.10
2022-10-02T22:55:34.175Z,2.88
2022-10-02T22:58:14.684Z,3.10
2022-10-02T23:00:20.611Z,2.35
2022-10-02T23:02:25.448Z,2.47
2022-10-02T23:04:33.361Z,2.85
2022-10-02T23:07:16.730Z,2.75
2022-10-02T23:09:26.709Z,2.88
2022-10-02T23:11:47.408Z,2.42
2022-10-02T23:13:54.237Z,2.40
2022-10-02T23:15:59.029Z,2.50
2022-10-02T23:18:07.282Z,2.40
2022-10-02T23:20:19.803Z,2.50
2022-10-02T23:22:40.349Z,2.30
2022-10-02T23:25:17.681Z,2.60
2022-10-02T23:27:29.951Z,2.55
2022-10-02T23:29:46.769Z,2.72
2022-10-02T23:32:11.158Z,3.03
2022-10-02T23:34:33.429Z,2.60
2022-10-02T23:37:11.849Z,2.60
2022-10-02T23:39:29.747Z,2.50
2022-10-02T23:41:40.610Z,2.50
2022-10-02T23:44:05.460Z,2.85
2022-10-02T23:48:12.811Z,2.38
2022-10-02T23:50:41.197Z,3.00
2022-10-02T23:53:18.957Z,2.83
2022-10-02T23:55:37.453Z,2.42
2022-10-02T23:57:54.268Z,2.60
